sensor_id;sensor_type;location;lat;lon;timestamp;P1;durP1;ratioP1;P2;durP2;ratioP2
32812;SDS011;19162;48.254;11.454;2023-07-31T00:00:31;2.13;;;1.45;;
32812;SDS011;19162;48.254;11.454;2023-07-31T00:03:31;1.25;;;1.10;;
32812;SDS011;19162;48.254;11.454;2023-07-31T00:06:31;1.75;;;1.48;;
32812;SDS011;19162;48.254;11.454;2023-07-31T00:09:32;2.40;;;1.43;;
32812;SDS011;19162;48.254;11.454;2023-07-31T00:12:32;3.53;;;1.50;;
32812;SDS011;19162;48.254;11.454;2023-07-31T00:15:32;1.73;;;1.55;;
32812;SDS011;19162;48.254;11.454;2023-07-31T00:18:33;2.30;;;1.30;;
32812;SDS011;19162;48.254;11.454;2023-07-31T00:21:33;2.83;;;1.73;;
32812;SDS011;19162;48.254;11.454;2023-07-31T00:24:33;1.73;;;1.10;;
32812;SDS011;19162;48.254;11.454;2023-07-31T00:27:33;2.72;;;1.60;;
32812;SDS011;19162;48.254;11.454;2023-07-31T00:30:33;2.13;;;1.37;;
32812;SDS011;19162;48.254;11.454;2023-07-31T00:33:34;3.92;;;1.88;;
32812;SDS011;19162;48.254;11.454;2023-07-31T00:36:34;2.00;;;1.83;;
32812;SDS011;19162;48.254;11.454;2023-07-31T00:39:35;2.63;;;1.73;;
32812;SDS011;19162;48.254;11.454;2023-07-31T00:42:35;2.40;;;1.13;;
32812;SDS011;19162;48.254;11.454;2023-07-31T00:45:35;2.43;;;1.33;;
32812;SDS011;19162;48.254;11.454;2023-07-31T00:48:36;2.60;;;1.57;;
32812;SDS011;19162;48.254;11.454;2023-07-31T00:51:37;2.88;;;1.75;;
32812;SDS011;19162;48.254;11.454;2023-07-31T00:54:37;2.37;;;1.70;;
32812;SDS011;19162;48.254;11.454;2023-07-31T00:57:37;2.50;;;1.40;;
32812;SDS011;19162;48.254;11.454;2023-07-31T01:00:38;2.55;;;1.38;;
32812;SDS011;19162;48.254;11.454;2023-07-31T01:03:39;1.70;;;1.35;;
32812;SDS011;19162;48.254;11.454;2023-07-31T01:06:52;3.88;;;2.10;;
32812;SDS011;19162;48.254;11.454;2023-07-31T01:10:02;1.92;;;1.60;;
32812;SDS011;19162;48.254;11.454;2023-07-31T01:13:03;3.22;;;1.60;;
32812;SDS011;19162;48.254;11.454;2023-07-31T01:16:03;1.63;;;1.53;;
32812;SDS011;19162;48.254;11.454;2023-07-31T01:19:03;2.87;;;1.43;;
32812;SDS011;19162;48.254;11.454;2023-07-31T01:31:38;1.60;;;1.42;;
32812;SDS011;19162;48.254;11.454;2023-07-31T01:34:39;3.13;;;1.38;;
32812;SDS011;19162;48.254;11.454;2023-07-31T01:37:41;3.00;;;1.58;;
32812;SDS011;19162;48.254;11.454;2023-07-31T01:40:41;1.03;;;1.00;;
32812;SDS011;19162;48.254;11.454;2023-07-31T01:43:41;2.33;;;1.40;;
32812;SDS011;19162;48.254;11.454;2023-07-31T01:46:42;1.88;;;1.23;;
32812;SDS011;19162;48.254;11.454;2023-07-31T01:49:42;3.15;;;1.70;;
32812;SDS011;19162;48.254;11.454;2023-07-31T01:52:42;2.27;;;1.67;;
32812;SDS011;19162;48.254;11.454;2023-07-31T01:55:42;1.73;;;1.63;;
32812;SDS011;19162;48.254;11.454;2023-07-31T01:58:42;4.67;;;1.30;;
32812;SDS011;19162;48.254;11.454;2023-07-31T02:01:43;1.85;;;1.33;;
32812;SDS011;19162;48.254;11.454;2023-07-31T02:04:43;2.45;;;1.25;;
32812;SDS011;19162;48.254;11.454;2023-07-31T02:07:43;2.63;;;1.92;;
32812;SDS011;19162;48.254;11.454;2023-07-31T02:10:43;2.60;;;1.70;;
32812;SDS011;19162;48.254;11.454;2023-07-31T02:13:43;1.43;;;1.33;;
32812;SDS011;19162;48.254;11.454;2023-07-31T02:16:44;1.60;;;1.27;;
32812;SDS011;19162;48.254;11.454;2023-07-31T02:19:44;3.80;;;1.70;;
32812;SDS011;19162;48.254;11.454;2023-07-31T02:22:44;1.42;;;1.23;;
32812;SDS011;19162;48.254;11.454;2023-07-31T02:25:44;2.10;;;1.50;;
32812;SDS011;19162;48.254;11.454;2023-07-31T02:28:44;2.40;;;1.38;;
32812;SDS011;19162;48.254;11.454;2023-07-31T02:31:45;2.67;;;1.60;;
32812;SDS011;19162;48.254;11.454;2023-07-31T02:34:45;2.90;;;1.80;;
32812;SDS011;19162;48.254;11.454;2023-07-31T02:37:45;2.33;;;1.30;;
32812;SDS011;19162;48.254;11.454;2023-07-31T02:40:45;3.90;;;1.95;;
32812;SDS011;19162;48.254;11.454;2023-07-31T02:43:46;3.97;;;1.48;;
32812;SDS011;19162;48.254;11.454;2023-07-31T02:46:46;1.90;;;1.27;;
32812;SDS011;19162;48.254;11.454;2023-07-31T02:49:46;1.95;;;1.63;;
32812;SDS011;19162;48.254;11.454;2023-07-31T02:52:46;3.15;;;2.05;;
32812;SDS011;19162;48.254;11.454;2023-07-31T02:55:46;2.53;;;1.75;;
32812;SDS011;19162;48.254;11.454;2023-07-31T02:58:47;1.80;;;1.70;;
32812;SDS011;19162;48.254;11.454;2023-07-31T03:01:47;2.33;;;1.40;;
32812;SDS011;19162;48.254;11.454;2023-07-31T03:04:47;3.58;;;1.40;;
32812;SDS011;19162;48.254;11.454;2023-07-31T03:07:47;4.07;;;1.67;;
32812;SDS011;19162;48.254;11.454;2023-07-31T03:10:47;3.03;;;1.80;;
32812;SDS011;19162;48.254;11.454;2023-07-31T03:13:48;3.83;;;1.50;;
32812;SDS011;19162;48.254;11.454;2023-07-31T03:16:48;2.03;;;1.80;;
32812;SDS011;19162;48.254;11.454;2023-07-31T03:19:48;6.53;;;1.80;;
32812;SDS011;19162;48.254;11.454;2023-07-31T03:22:49;2.67;;;1.60;;
32812;SDS011;19162;48.254;11.454;2023-07-31T03:25:58;1.97;;;1.67;;
32812;SDS011;19162;48.254;11.454;2023-07-31T03:28:58;2.47;;;1.70;;
32812;SDS011;19162;48.254;11.454;2023-07-31T03:31:58;1.83;;;1.60;;
32812;SDS011;19162;48.254;11.454;2023-07-31T03:34:59;3.08;;;1.67;;
32812;SDS011;19162;48.254;11.454;2023-07-31T03:38:00;3.85;;;1.58;;
32812;SDS011;19162;48.254;11.454;2023-07-31T03:41:00;2.78;;;1.90;;
32812;SDS011;19162;48.254;11.454;2023-07-31T03:44:00;4.40;;;1.67;;
32812;SDS011;19162;48.254;11.454;2023-07-31T03:47:00;3.27;;;1.43;;
32812;SDS011;19162;48.254;11.454;2023-07-31T03:50:00;2.40;;;1.50;;
32812;SDS011;19162;48.254;11.454;2023-07-31T03:53:01;2.70;;;1.42;;
32812;SDS011;19162;48.254;11.454;2023-07-31T03:56:01;2.22;;;1.50;;
32812;SDS011;19162;48.254;11.454;2023-07-31T03:59:01;3.88;;;1.83;;
32812;SDS011;19162;48.254;11.454;2023-07-31T04:02:01;3.65;;;1.85;;
32812;SDS011;19162;48.254;11.454;2023-07-31T04:05:01;2.13;;;1.87;;
32812;SDS011;19162;48.254;11.454;2023-07-31T04:08:02;3.10;;;1.90;;
32812;SDS011;19162;48.254;11.454;2023-07-31T04:11:02;3.47;;;1.60;;
32812;SDS011;19162;48.254;11.454;2023-07-31T04:14:02;2.53;;;1.90;;
32812;SDS011;19162;48.254;11.454;2023-07-31T04:17:02;3.40;;;2.07;;
32812;SDS011;19162;48.254;11.454;2023-07-31T04:20:02;6.40;;;2.28;;
32812;SDS011;19162;48.254;11.454;2023-07-31T04:23:03;1.65;;;1.48;;
32812;SDS011;19162;48.254;11.454;2023-07-31T04:26:03;2.58;;;1.52;;
32812;SDS011;19162;48.254;11.454;2023-07-31T04:29:03;3.07;;;1.87;;
32812;SDS011;19162;48.254;11.454;2023-07-31T04:32:03;2.55;;;1.50;;
32812;SDS011;19162;48.254;11.454;2023-07-31T04:35:04;2.80;;;1.80;;
32812;SDS011;19162;48.254;11.454;2023-07-31T04:38:04;2.08;;;1.88;;
32812;SDS011;19162;48.254;11.454;2023-07-31T04:41:04;1.77;;;1.50;;
32812;SDS011;19162;48.254;11.454;2023-07-31T04:44:05;4.05;;;1.50;;
32812;SDS011;19162;48.254;11.454;2023-07-31T04:47:05;2.60;;;2.13;;
32812;SDS011;19162;48.254;11.454;2023-07-31T04:50:06;2.35;;;1.60;;
32812;SDS011;19162;48.254;11.454;2023-07-31T04:53:06;3.65;;;1.75;;
32812;SDS011;19162;48.254;11.454;2023-07-31T04:56:06;3.97;;;1.93;;
32812;SDS011;19162;48.254;11.454;2023-07-31T04:59:06;2.45;;;1.52;;
32812;SDS011;19162;48.254;11.454;2023-07-31T05:02:07;3.03;;;2.10;;
32812;SDS011;19162;48.254;11.454;2023-07-31T05:05:08;3.28;;;2.25;;
32812;SDS011;19162;48.254;11.454;2023-07-31T05:08:08;2.17;;;1.63;;
32812;SDS011;19162;48.254;11.454;2023-07-31T05:11:08;6.30;;;2.10;;
32812;SDS011;19162;48.254;11.454;2023-07-31T05:14:08;5.82;;;3.00;;
32812;SDS011;19162;48.254;11.454;2023-07-31T05:17:09;4.00;;;2.00;;
32812;SDS011;19162;48.254;11.454;2023-07-31T05:20:09;2.20;;;1.80;;
32812;SDS011;19162;48.254;11.454;2023-07-31T05:23:09;3.00;;;2.30;;
32812;SDS011;19162;48.254;11.454;2023-07-31T05:26:09;2.03;;;1.83;;
32812;SDS011;19162;48.254;11.454;2023-07-31T05:29:10;2.60;;;1.40;;
32812;SDS011;19162;48.254;11.454;2023-07-31T05:32:10;2.15;;;1.80;;
32812;SDS011;19162;48.254;11.454;2023-07-31T05:35:10;2.45;;;1.60;;
32812;SDS011;19162;48.254;11.454;2023-07-31T05:38:10;2.83;;;2.27;;
32812;SDS011;19162;48.254;11.454;2023-07-31T05:41:11;2.60;;;2.40;;
32812;SDS011;19162;48.254;11.454;2023-07-31T05:44:11;3.00;;;2.67;;
32812;SDS011;19162;48.254;11.454;2023-07-31T05:47:12;2.20;;;2.00;;
32812;SDS011;19162;48.254;11.454;2023-07-31T05:50:12;2.10;;;1.90;;
32812;SDS011;19162;48.254;11.454;2023-07-31T05:53:13;2.08;;;1.63;;
32812;SDS011;19162;48.254;11.454;2023-07-31T05:56:13;2.07;;;1.50;;
32812;SDS011;19162;48.254;11.454;2023-07-31T05:59:13;1.60;;;1.50;;
32812;SDS011;19162;48.254;11.454;2023-07-31T06:02:13;2.73;;;1.63;;
32812;SDS011;19162;48.254;11.454;2023-07-31T06:05:14;2.77;;;1.97;;
32812;SDS011;19162;48.254;11.454;2023-07-31T06:08:14;2.35;;;1.38;;
32812;SDS011;19162;48.254;11.454;2023-07-31T06:11:14;2.60;;;2.00;;
32812;SDS011;19162;48.254;11.454;2023-07-31T06:14:14;2.42;;;1.90;;
32812;SDS011;19162;48.254;11.454;2023-07-31T06:17:14;3.15;;;1.77;;
32812;SDS011;19162;48.254;11.454;2023-07-31T06:20:15;2.00;;;1.75;;
32812;SDS011;19162;48.254;11.454;2023-07-31T06:23:15;3.97;;;1.90;;
32812;SDS011;19162;48.254;11.454;2023-07-31T06:26:15;3.22;;;1.85;;
32812;SDS011;19162;48.254;11.454;2023-07-31T06:29:15;3.33;;;1.97;;
32812;SDS011;19162;48.254;11.454;2023-07-31T06:32:15;3.03;;;2.17;;
32812;SDS011;19162;48.254;11.454;2023-07-31T06:35:16;2.30;;;1.60;;
32812;SDS011;19162;48.254;11.454;2023-07-31T06:38:19;1.80;;;1.63;;
32812;SDS011;19162;48.254;11.454;2023-07-31T06:41:19;2.45;;;1.50;;
32812;SDS011;19162;48.254;11.454;2023-07-31T06:44:19;2.17;;;1.93;;
32812;SDS011;19162;48.254;11.454;2023-07-31T06:47:20;1.90;;;1.80;;
32812;SDS011;19162;48.254;11.454;2023-07-31T06:50:20;2.70;;;1.30;;
32812;SDS011;19162;48.254;11.454;2023-07-31T06:53:20;1.73;;;1.63;;
32812;SDS011;19162;48.254;11.454;2023-07-31T06:56:20;1.92;;;1.63;;
32812;SDS011;19162;48.254;11.454;2023-07-31T06:59:20;2.70;;;1.73;;
32812;SDS011;19162;48.254;11.454;2023-07-31T07:02:21;1.48;;;1.30;;
32812;SDS011;19162;48.254;11.454;2023-07-31T07:05:21;2.07;;;1.50;;
32812;SDS011;19162;48.254;11.454;2023-07-31T07:08:21;1.70;;;1.60;;
32812;SDS011;19162;48.254;11.454;2023-07-31T07:11:22;2.70;;;1.40;;
32812;SDS011;19162;48.254;11.454;2023-07-31T07:14:22;4.00;;;1.77;;
32812;SDS011;19162;48.254;11.454;2023-07-31T07:17:22;2.28;;;1.70;;
32812;SDS011;19162;48.254;11.454;2023-07-31T07:20:22;2.55;;;1.52;;
32812;SDS011;19162;48.254;11.454;2023-07-31T07:23:22;2.77;;;1.83;;
32812;SDS011;19162;48.254;11.454;2023-07-31T07:26:22;4.07;;;1.63;;
32812;SDS011;19162;48.254;11.454;2023-07-31T07:29:23;2.00;;;1.23;;
32812;SDS011;19162;48.254;11.454;2023-07-31T07:32:23;1.60;;;1.40;;
32812;SDS011;19162;48.254;11.454;2023-07-31T07:35:23;2.08;;;1.65;;
32812;SDS011;19162;48.254;11.454;2023-07-31T07:38:24;3.40;;;1.65;;
32812;SDS011;19162;48.254;11.454;2023-07-31T07:41:24;1.53;;;1.13;;
32812;SDS011;19162;48.254;11.454;2023-07-31T07:44:24;1.50;;;1.40;;
32812;SDS011;19162;48.254;11.454;2023-07-31T07:47:24;2.57;;;1.13;;
32812;SDS011;19162;48.254;11.454;2023-07-31T07:50:25;2.63;;;1.70;;
32812;SDS011;19162;48.254;11.454;2023-07-31T07:53:25;2.80;;;1.30;;
32812;SDS011;19162;48.254;11.454;2023-07-31T07:56:25;1.60;;;1.43;;
32812;SDS011;19162;48.254;11.454;2023-07-31T07:59:26;2.45;;;1.25;;
32812;SDS011;19162;48.254;11.454;2023-07-31T08:02:26;1.50;;;1.33;;
32812;SDS011;19162;48.254;11.454;2023-07-31T08:05:26;4.38;;;1.60;;
32812;SDS011;19162;48.254;11.454;2023-07-31T08:08:27;1.60;;;1.30;;
32812;SDS011;19162;48.254;11.454;2023-07-31T08:11:27;2.13;;;1.52;;
32812;SDS011;19162;48.254;11.454;2023-07-31T08:14:28;1.30;;;0.88;;
32812;SDS011;19162;48.254;11.454;2023-07-31T08:17:28;1.73;;;1.23;;
32812;SDS011;19162;48.254;11.454;2023-07-31T08:20:28;1.83;;;1.10;;
32812;SDS011;19162;48.254;11.454;2023-07-31T08:23:28;1.43;;;1.03;;
32812;SDS011;19162;48.254;11.454;2023-07-31T08:26:29;2.80;;;1.60;;
32812;SDS011;19162;48.254;11.454;2023-07-31T08:29:29;2.40;;;1.57;;
32812;SDS011;19162;48.254;11.454;2023-07-31T08:32:29;2.30;;;1.43;;
32812;SDS011;19162;48.254;11.454;2023-07-31T08:35:29;1.67;;;1.25;;
32812;SDS011;19162;48.254;11.454;2023-07-31T08:38:29;1.17;;;0.90;;
32812;SDS011;19162;48.254;11.454;2023-07-31T08:41:30;2.70;;;1.60;;
32812;SDS011;19162;48.254;11.454;2023-07-31T08:44:30;2.00;;;1.20;;
32812;SDS011;19162;48.254;11.454;2023-07-31T08:47:30;1.63;;;1.20;;
32812;SDS011;19162;48.254;11.454;2023-07-31T08:50:31;3.08;;;1.63;;
32812;SDS011;19162;48.254;11.454;2023-07-31T08:53:31;2.55;;;1.10;;
32812;SDS011;19162;48.254;11.454;2023-07-31T08:56:32;2.27;;;1.43;;
32812;SDS011;19162;48.254;11.454;2023-07-31T08:59:32;2.00;;;1.30;;
32812;SDS011;19162;48.254;11.454;2023-07-31T09:02:35;2.55;;;1.75;;
32812;SDS011;19162;48.254;11.454;2023-07-31T09:05:37;3.47;;;1.80;;
32812;SDS011;19162;48.254;11.454;2023-07-31T09:11:40;1.98;;;1.25;;
32812;SDS011;19162;48.254;11.454;2023-07-31T09:14:40;2.13;;;1.63;;
32812;SDS011;19162;48.254;11.454;2023-07-31T09:17:41;2.45;;;1.30;;
32812;SDS011;19162;48.254;11.454;2023-07-31T09:20:42;3.80;;;1.70;;
32812;SDS011;19162;48.254;11.454;2023-07-31T09:23:43;2.33;;;1.60;;
32812;SDS011;19162;48.254;11.454;2023-07-31T09:26:43;3.20;;;1.58;;
32812;SDS011;19162;48.254;11.454;2023-07-31T09:29:43;4.82;;;1.67;;
32812;SDS011;19162;48.254;11.454;2023-07-31T09:32:44;2.17;;;1.40;;
32812;SDS011;19162;48.254;11.454;2023-07-31T09:35:44;1.98;;;1.40;;
32812;SDS011;19162;48.254;11.454;2023-07-31T09:38:45;2.27;;;1.13;;
32812;SDS011;19162;48.254;11.454;2023-07-31T09:41:47;2.57;;;1.50;;
32812;SDS011;19162;48.254;11.454;2023-07-31T09:44:47;1.35;;;1.08;;
32812;SDS011;19162;48.254;11.454;2023-07-31T09:47:47;2.53;;;1.27;;
32812;SDS011;19162;48.254;11.454;2023-07-31T09:50:51;2.72;;;1.40;;
32812;SDS011;19162;48.254;11.454;2023-07-31T09:53:51;2.10;;;1.30;;
32812;SDS011;19162;48.254;11.454;2023-07-31T09:56:51;2.13;;;1.20;;
32812;SDS011;19162;48.254;11.454;2023-07-31T09:59:52;2.70;;;1.52;;
32812;SDS011;19162;48.254;11.454;2023-07-31T10:02:52;2.17;;;1.30;;
32812;SDS011;19162;48.254;11.454;2023-07-31T10:05:53;1.92;;;1.40;;
32812;SDS011;19162;48.254;11.454;2023-07-31T10:08:54;2.28;;;1.45;;
32812;SDS011;19162;48.254;11.454;2023-07-31T10:11:55;2.30;;;1.70;;
32812;SDS011;19162;48.254;11.454;2023-07-31T10:14:59;2.55;;;1.60;;
32812;SDS011;19162;48.254;11.454;2023-07-31T10:17:59;3.17;;;1.57;;
32812;SDS011;19162;48.254;11.454;2023-07-31T10:21:00;2.75;;;1.63;;
32812;SDS011;19162;48.254;11.454;2023-07-31T10:24:01;2.93;;;1.57;;
32812;SDS011;19162;48.254;11.454;2023-07-31T10:27:02;4.85;;;2.40;;
32812;SDS011;19162;48.254;11.454;2023-07-31T10:30:03;3.72;;;1.75;;
32812;SDS011;19162;48.254;11.454;2023-07-31T10:33:05;1.67;;;1.58;;
32812;SDS011;19162;48.254;11.454;2023-07-31T10:36:12;2.65;;;1.48;;
32812;SDS011;19162;48.254;11.454;2023-07-31T10:48:38;1.70;;;1.60;;
32812;SDS011;19162;48.254;11.454;2023-07-31T10:51:40;3.75;;;1.60;;
32812;SDS011;19162;48.254;11.454;2023-07-31T10:54:40;1.98;;;1.35;;
32812;SDS011;19162;48.254;11.454;2023-07-31T10:57:43;3.00;;;1.97;;
32812;SDS011;19162;48.254;11.454;2023-07-31T11:00:44;2.30;;;1.55;;
32812;SDS011;19162;48.254;11.454;2023-07-31T11:03:48;1.40;;;1.30;;
32812;SDS011;19162;48.254;11.454;2023-07-31T11:06:55;1.67;;;1.58;;
32812;SDS011;19162;48.254;11.454;2023-07-31T11:09:56;5.15;;;1.65;;
32812;SDS011;19162;48.254;11.454;2023-07-31T11:12:57;2.87;;;1.77;;
32812;SDS011;19162;48.254;11.454;2023-07-31T11:15:57;1.17;;;1.08;;
32812;SDS011;19162;48.254;11.454;2023-07-31T11:18:57;2.53;;;1.67;;
32812;SDS011;19162;48.254;11.454;2023-07-31T11:21:57;3.77;;;1.87;;
32812;SDS011;19162;48.254;11.454;2023-07-31T11:24:58;1.92;;;1.55;;
32812;SDS011;19162;48.254;11.454;2023-07-31T11:28:32;2.77;;;1.73;;
32812;SDS011;19162;48.254;11.454;2023-07-31T11:31:25;1.85;;;1.52;;
32812;SDS011;19162;48.254;11.454;2023-07-31T11:37:41;2.72;;;1.70;;
32812;SDS011;19162;48.254;11.454;2023-07-31T11:40:41;2.92;;;1.60;;
32812;SDS011;19162;48.254;11.454;2023-07-31T11:43:42;1.67;;;1.48;;
32812;SDS011;19162;48.254;11.454;2023-07-31T11:46:42;2.95;;;1.75;;
32812;SDS011;19162;48.254;11.454;2023-07-31T11:49:43;2.53;;;1.80;;
32812;SDS011;19162;48.254;11.454;2023-07-31T11:52:44;1.85;;;1.55;;
32812;SDS011;19162;48.254;11.454;2023-07-31T11:55:45;1.42;;;1.20;;
32812;SDS011;19162;48.254;11.454;2023-07-31T11:58:47;3.13;;;1.40;;
32812;SDS011;19162;48.254;11.454;2023-07-31T12:01:48;1.95;;;1.73;;
32812;SDS011;19162;48.254;11.454;2023-07-31T12:04:53;2.28;;;1.52;;
32812;SDS011;19162;48.254;11.454;2023-07-31T12:07:53;1.87;;;1.30;;
32812;SDS011;19162;48.254;11.454;2023-07-31T12:10:54;4.20;;;2.00;;
32812;SDS011;19162;48.254;11.454;2023-07-31T12:14:03;2.53;;;1.55;;
32812;SDS011;19162;48.254;11.454;2023-07-31T12:17:04;2.60;;;1.65;;
32812;SDS011;19162;48.254;11.454;2023-07-31T12:20:04;2.03;;;1.40;;
32812;SDS011;19162;48.254;11.454;2023-07-31T12:23:05;3.45;;;1.48;;
32812;SDS011;19162;48.254;11.454;2023-07-31T12:26:06;1.87;;;1.70;;
32812;SDS011;19162;48.254;11.454;2023-07-31T12:29:07;3.95;;;2.17;;
32812;SDS011;19162;48.254;11.454;2023-07-31T12:32:20;2.55;;;1.45;;
32812;SDS011;19162;48.254;11.454;2023-07-31T12:35:21;1.77;;;1.40;;
32812;SDS011;19162;48.254;11.454;2023-07-31T12:38:21;2.73;;;2.03;;
32812;SDS011;19162;48.254;11.454;2023-07-31T12:41:21;2.00;;;1.50;;
32812;SDS011;19162;48.254;11.454;2023-07-31T12:44:21;2.75;;;1.80;;
32812;SDS011;19162;48.254;11.454;2023-07-31T12:47:21;2.63;;;1.90;;
32812;SDS011;19162;48.254;11.454;2023-07-31T12:50:22;2.40;;;1.73;;
32812;SDS011;19162;48.254;11.454;2023-07-31T12:53:23;2.22;;;1.92;;
32812;SDS011;19162;48.254;11.454;2023-07-31T12:56:24;2.25;;;1.60;;
32812;SDS011;19162;48.254;11.454;2023-07-31T12:59:25;1.67;;;1.57;;
32812;SDS011;19162;48.254;11.454;2023-07-31T13:02:25;4.30;;;2.63;;
32812;SDS011;19162;48.254;11.454;2023-07-31T13:05:25;1.73;;;1.63;;
32812;SDS011;19162;48.254;11.454;2023-07-31T13:08:26;3.55;;;1.42;;
32812;SDS011;19162;48.254;11.454;2023-07-31T13:11:26;2.00;;;1.40;;
32812;SDS011;19162;48.254;11.454;2023-07-31T13:14:26;6.13;;;2.10;;
32812;SDS011;19162;48.254;11.454;2023-07-31T13:17:26;3.15;;;1.80;;
32812;SDS011;19162;48.254;11.454;2023-07-31T13:20:27;2.57;;;1.50;;
32812;SDS011;19162;48.254;11.454;2023-07-31T13:23:27;2.93;;;1.70;;
32812;SDS011;19162;48.254;11.454;2023-07-31T13:26:27;2.08;;;1.67;;
32812;SDS011;19162;48.254;11.454;2023-07-31T13:29:27;3.03;;;1.90;;
32812;SDS011;19162;48.254;11.454;2023-07-31T13:32:29;3.65;;;2.10;;
32812;SDS011;19162;48.254;11.454;2023-07-31T13:35:30;5.47;;;2.03;;
32812;SDS011;19162;48.254;11.454;2023-07-31T13:38:31;6.85;;;2.13;;
32812;SDS011;19162;48.254;11.454;2023-07-31T13:41:31;2.10;;;1.63;;
32812;SDS011;19162;48.254;11.454;2023-07-31T13:44:32;1.92;;;1.50;;
32812;SDS011;19162;48.254;11.454;2023-07-31T13:47:32;1.92;;;1.60;;
32812;SDS011;19162;48.254;11.454;2023-07-31T13:50:33;3.63;;;1.50;;
32812;SDS011;19162;48.254;11.454;2023-07-31T13:53:33;6.30;;;2.38;;
32812;SDS011;19162;48.254;11.454;2023-07-31T13:56:33;3.37;;;1.93;;
32812;SDS011;19162;48.254;11.454;2023-07-31T13:59:33;3.37;;;1.83;;
32812;SDS011;19162;48.254;11.454;2023-07-31T14:02:34;2.28;;;1.75;;
32812;SDS011;19162;48.254;11.454;2023-07-31T14:05:34;2.00;;;1.43;;
32812;SDS011;19162;48.254;11.454;2023-07-31T14:08:34;3.23;;;1.67;;
32812;SDS011;19162;48.254;11.454;2023-07-31T14:11:34;2.30;;;1.83;;
32812;SDS011;19162;48.254;11.454;2023-07-31T14:14:34;5.60;;;2.03;;
32812;SDS011;19162;48.254;11.454;2023-07-31T14:17:35;2.63;;;2.03;;
32812;SDS011;19162;48.254;11.454;2023-07-31T14:20:35;4.30;;;1.85;;
32812;SDS011;19162;48.254;11.454;2023-07-31T14:23:35;4.03;;;2.40;;
32812;SDS011;19162;48.254;11.454;2023-07-31T14:26:35;5.68;;;2.10;;
32812;SDS011;19162;48.254;11.454;2023-07-31T14:29:36;1.77;;;1.60;;
32812;SDS011;19162;48.254;11.454;2023-07-31T14:32:36;2.00;;;1.80;;
32812;SDS011;19162;48.254;11.454;2023-07-31T14:35:37;2.22;;;1.50;;
32812;SDS011;19162;48.254;11.454;2023-07-31T14:38:37;2.28;;;1.52;;
32812;SDS011;19162;48.254;11.454;2023-07-31T14:41:37;2.40;;;1.83;;
32812;SDS011;19162;48.254;11.454;2023-07-31T14:44:37;3.10;;;1.87;;
32812;SDS011;19162;48.254;11.454;2023-07-31T14:47:38;2.60;;;1.77;;
32812;SDS011;19162;48.254;11.454;2023-07-31T14:50:38;2.03;;;1.80;;
32812;SDS011;19162;48.254;11.454;2023-07-31T14:53:38;3.17;;;1.73;;
32812;SDS011;19162;48.254;11.454;2023-07-31T14:56:38;3.67;;;1.70;;
32812;SDS011;19162;48.254;11.454;2023-07-31T14:59:38;2.03;;;1.67;;
32812;SDS011;19162;48.254;11.454;2023-07-31T15:02:39;3.47;;;1.80;;
32812;SDS011;19162;48.254;11.454;2023-07-31T15:05:39;2.30;;;2.05;;
32812;SDS011;19162;48.254;11.454;2023-07-31T15:08:39;5.23;;;2.10;;
32812;SDS011;19162;48.254;11.454;2023-07-31T15:11:41;3.20;;;2.28;;
32812;SDS011;19162;48.254;11.454;2023-07-31T15:14:41;5.50;;;2.17;;
32812;SDS011;19162;48.254;11.454;2023-07-31T15:17:41;5.32;;;2.33;;
32812;SDS011;19162;48.254;11.454;2023-07-31T15:20:42;2.88;;;2.47;;
32812;SDS011;19162;48.254;11.454;2023-07-31T15:23:42;3.83;;;2.17;;
32812;SDS011;19162;48.254;11.454;2023-07-31T15:26:42;2.50;;;1.87;;
32812;SDS011;19162;48.254;11.454;2023-07-31T15:29:42;4.13;;;1.80;;
32812;SDS011;19162;48.254;11.454;2023-07-31T15:32:42;2.60;;;2.00;;
32812;SDS011;19162;48.254;11.454;2023-07-31T15:35:45;5.90;;;2.58;;
32812;SDS011;19162;48.254;11.454;2023-07-31T15:38:46;4.82;;;2.28;;
32812;SDS011;19162;48.254;11.454;2023-07-31T15:41:50;5.25;;;2.30;;
32812;SDS011;19162;48.254;11.454;2023-07-31T15:44:50;6.40;;;2.50;;
32812;SDS011;19162;48.254;11.454;2023-07-31T15:47:51;2.20;;;2.00;;
32812;SDS011;19162;48.254;11.454;2023-07-31T15:50:51;2.55;;;2.35;;
32812;SDS011;19162;48.254;11.454;2023-07-31T15:53:51;6.03;;;2.90;;
32812;SDS011;19162;48.254;11.454;2023-07-31T15:56:51;3.17;;;2.60;;
32812;SDS011;19162;48.254;11.454;2023-07-31T15:59:51;4.27;;;2.13;;
32812;SDS011;19162;48.254;11.454;2023-07-31T16:02:52;2.67;;;2.47;;
32812;SDS011;19162;48.254;11.454;2023-07-31T16:05:52;3.00;;;2.55;;
32812;SDS011;19162;48.254;11.454;2023-07-31T16:08:52;2.87;;;2.30;;
32812;SDS011;19162;48.254;11.454;2023-07-31T16:11:54;4.35;;;2.60;;
32812;SDS011;19162;48.254;11.454;2023-07-31T16:14:54;3.13;;;2.40;;
32812;SDS011;19162;48.254;11.454;2023-07-31T16:17:55;4.03;;;2.60;;
32812;SDS011;19162;48.254;11.454;2023-07-31T16:20:55;2.10;;;1.90;;
32812;SDS011;19162;48.254;11.454;2023-07-31T16:23:55;4.93;;;3.37;;
32812;SDS011;19162;48.254;11.454;2023-07-31T16:26:55;3.70;;;2.80;;
32812;SDS011;19162;48.254;11.454;2023-07-31T16:29:56;3.15;;;2.30;;
32812;SDS011;19162;48.254;11.454;2023-07-31T16:32:59;3.38;;;3.08;;
32812;SDS011;19162;48.254;11.454;2023-07-31T16:36:00;3.40;;;2.57;;
32812;SDS011;19162;48.254;11.454;2023-07-31T16:39:00;3.43;;;2.10;;
32812;SDS011;19162;48.254;11.454;2023-07-31T16:42:03;8.53;;;3.30;;
32812;SDS011;19162;48.254;11.454;2023-07-31T16:45:03;2.97;;;2.40;;
32812;SDS011;19162;48.254;11.454;2023-07-31T16:48:04;2.75;;;2.55;;
32812;SDS011;19162;48.254;11.454;2023-07-31T16:51:04;5.43;;;3.33;;
32812;SDS011;19162;48.254;11.454;2023-07-31T16:54:04;2.45;;;1.58;;
32812;SDS011;19162;48.254;11.454;2023-07-31T16:57:05;3.27;;;2.90;;
32812;SDS011;19162;48.254;11.454;2023-07-31T17:00:05;3.03;;;2.57;;
32812;SDS011;19162;48.254;11.454;2023-07-31T17:03:05;2.50;;;2.25;;
32812;SDS011;19162;48.254;11.454;2023-07-31T17:06:06;3.00;;;1.87;;
32812;SDS011;19162;48.254;11.454;2023-07-31T17:09:06;1.80;;;1.20;;
32812;SDS011;19162;48.254;11.454;2023-07-31T17:12:07;1.73;;;1.45;;
32812;SDS011;19162;48.254;11.454;2023-07-31T17:15:07;3.20;;;2.90;;
32812;SDS011;19162;48.254;11.454;2023-07-31T17:18:07;3.72;;;2.08;;
32812;SDS011;19162;48.254;11.454;2023-07-31T17:21:09;5.05;;;2.75;;
32812;SDS011;19162;48.254;11.454;2023-07-31T17:24:09;3.80;;;2.47;;
32812;SDS011;19162;48.254;11.454;2023-07-31T17:27:09;3.38;;;2.70;;
32812;SDS011;19162;48.254;11.454;2023-07-31T17:30:09;2.78;;;2.40;;
32812;SDS011;19162;48.254;11.454;2023-07-31T17:33:10;3.53;;;2.42;;
32812;SDS011;19162;48.254;11.454;2023-07-31T17:36:10;4.05;;;2.70;;
32812;SDS011;19162;48.254;11.454;2023-07-31T17:39:10;4.30;;;2.85;;
32812;SDS011;19162;48.254;11.454;2023-07-31T17:42:11;2.78;;;2.33;;
32812;SDS011;19162;48.254;11.454;2023-07-31T17:45:11;3.05;;;2.38;;
32812;SDS011;19162;48.254;11.454;2023-07-31T17:48:12;5.10;;;2.87;;
32812;SDS011;19162;48.254;11.454;2023-07-31T17:51:12;5.63;;;2.47;;
32812;SDS011;19162;48.254;11.454;2023-07-31T17:54:12;2.42;;;2.10;;
32812;SDS011;19162;48.254;11.454;2023-07-31T17:57:13;4.50;;;2.10;;
32812;SDS011;19162;48.254;11.454;2023-07-31T18:00:13;3.15;;;2.85;;
32812;SDS011;19162;48.254;11.454;2023-07-31T18:03:13;3.53;;;2.10;;
32812;SDS011;19162;48.254;11.454;2023-07-31T18:06:14;4.60;;;3.00;;
32812;SDS011;19162;48.254;11.454;2023-07-31T18:09:14;3.73;;;2.87;;
32812;SDS011;19162;48.254;11.454;2023-07-31T18:12:14;4.07;;;2.53;;
32812;SDS011;19162;48.254;11.454;2023-07-31T18:15:15;3.75;;;2.92;;